createdAt,value
2017-08-01T00:00:25.403Z,1010.43
2017-08-01T00:01:25.432Z,1010.45
2017-08-01T00:02:25.457Z,1010.4
2017-08-01T00:03:25.483Z,1010.39
2017-08-01T00:04:25.508Z,1010.4
2017-08-01T00:05:25.535Z,1010.38
2017-08-01T00:06:25.563Z,1010.39
2017-08-01T00:07:25.587Z,1010.39
2017-08-01T00:08:25.614Z,1010.36
2017-08-01T00:09:25.635Z,1010.32
2017-08-01T00:10:25.667Z,1010.39
2017-08-01T00:11:25.695Z,1010.35
2017-08-01T00:12:25.720Z,1010.35
2017-08-01T00:13:25.743Z,1010.37
2017-08-01T00:14:25.771Z,1010.36
2017-08-01T00:15:25.800Z,1010.31
2017-08-01T00:16:25.825Z,1010.32
2017-08-01T00:17:25.851Z,1010.26
2017-08-01T00:18:25.876Z,1010.26
2017-08-01T00:19:25.902Z,1010.25
2017-08-01T00:20:25.928Z,1010.23
2017-08-01T00:21:25.952Z,1010.26
2017-08-01T00:22:25.982Z,1010.31
2017-08-01T00:23:26.004Z,1010.28
2017-08-01T00:24:26.060Z,1010.24
2017-08-01T00:25:26.062Z,1010.24
2017-08-01T00:27:26.109Z,1010.22
2017-08-01T00:28:26.139Z,1010.23
2017-08-01T00:29:26.163Z,1010.25
2017-08-01T00:30:26.190Z,1010.28
2017-08-01T00:31:26.216Z,1010.25
2017-08-01T00:32:26.248Z,1010.24
2017-08-01T00:33:26.268Z,1010.26
2017-08-01T00:34:26.295Z,1010.3
2017-08-01T00:35:26.316Z,1010.27
2017-08-01T00:36:26.347Z,1010.28
2017-08-01T00:37:26.373Z,1010.32
2017-08-01T00:38:26.399Z,1010.32
2017-08-01T00:39:26.423Z,1010.32
2017-08-01T00:40:26.453Z,1010.35
2017-08-01T00:41:26.480Z,1010.31
2017-08-01T00:43:26.531Z,1010.36
2017-08-01T00:44:26.550Z,1010.33
2017-08-01T00:45:26.582Z,1010.39
2017-08-01T00:46:26.605Z,1010.36
2017-08-01T00:47:26.634Z,1010.38
2017-08-01T00:48:26.661Z,1010.42
2017-08-01T00:49:26.685Z,1010.4
2017-08-01T00:50:26.711Z,1010.41
2017-08-01T00:51:26.736Z,1010.36
2017-08-01T00:52:26.763Z,1010.37
2017-08-01T00:53:26.791Z,1010.32
2017-08-01T00:54:26.818Z,1010.33
2017-08-01T00:55:26.847Z,1010.37
2017-08-01T00:56:26.866Z,1010.38
2017-08-01T00:57:26.896Z,1010.4
2017-08-01T00:59:26.947Z,1010.35
2017-08-01T01:00:26.973Z,1010.34
2017-08-01T01:01:26.996Z,1010.33
2017-08-01T01:02:27.026Z,1010.37
2017-08-01T01:03:27.046Z,1010.35
2017-08-01T01:04:27.332Z,1010.33
2017-08-01T01:05:27.106Z,1010.29
2017-08-01T01:06:27.129Z,1010.25
2017-08-01T01:07:27.155Z,1010.23
2017-08-01T01:08:27.178Z,1010.2
2017-08-01T01:09:27.207Z,1010.21
2017-08-01T01:10:27.235Z,1010.17
2017-08-01T01:11:27.260Z,1010.19
2017-08-01T01:12:27.288Z,1010.18
2017-08-01T01:13:27.309Z,1010.18
2017-08-01T01:15:27.365Z,1010.19
2017-08-01T01:16:27.391Z,1010.14
2017-08-01T01:17:27.417Z,1010.2
2017-08-01T01:18:27.439Z,1010.17
2017-08-01T01:19:27.469Z,1010.17
2017-08-01T01:20:27.491Z,1010.19
2017-08-01T01:21:27.527Z,1010.14
2017-08-01T01:22:27.544Z,1010.15
2017-08-01T01:23:27.574Z,1010.11
2017-08-01T01:24:27.600Z,1010.07
2017-08-01T01:25:27.624Z,1010.03
2017-08-01T01:26:27.652Z,1009.95
2017-08-01T01:27:27.680Z,1009.94
2017-08-01T01:28:27.705Z,1009.92
2017-08-01T01:30:27.756Z,1009.94
2017-08-01T01:31:27.785Z,1009.97
2017-08-01T01:32:27.809Z,1010.01
2017-08-01T01:33:27.859Z,1010.07
2017-08-01T01:34:27.862Z,1010.13
2017-08-01T01:35:27.882Z,1010.12
2017-08-01T01:36:27.914Z,1010.16
2017-08-01T01:37:27.941Z,1010.12
2017-08-01T01:38:27.966Z,1010.14
2017-08-01T01:39:27.992Z,1010.13
2017-08-01T01:40:28.016Z,1010.14
2017-08-01T01:41:28.043Z,1010.19
2017-08-01T01:42:28.067Z,1010.18
2017-08-01T01:43:28.095Z,1010.18
2017-08-01T01:44:28.122Z,1010.21
2017-08-01T01:45:28.146Z,1010.22
2017-08-01T01:46:28.173Z,1010.21
2017-08-01T01:47:28.201Z,1010.22
2017-08-01T01:48:28.228Z,1010.19
2017-08-01T01:49:28.249Z,1010.2
2017-08-01T01:50:28.273Z,1010.2
2017-08-01T01:51:28.304Z,1010.13
2017-08-01T01:52:28.330Z,1010.17
2017-08-01T01:53:28.354Z,1010.15
2017-08-01T01:54:28.382Z,1010.16
2017-08-01T01:55:28.408Z,1010.14
2017-08-01T01:56:28.435Z,1010.15
2017-08-01T01:57:28.456Z,1010.13
2017-08-01T01:58:28.487Z,1010.09
2017-08-01T01:59:28.510Z,1010.06
2017-08-01T02:00:28.541Z,1010.08
2017-08-01T02:02:28.588Z,1010.09
2017-08-01T02:03:28.615Z,1010.07
2017-08-01T02:04:28.641Z,1010.1
2017-08-01T02:05:28.668Z,1010.17
2017-08-01T02:06:28.693Z,1010.25
2017-08-01T02:07:28.718Z,1010.3
2017-08-01T02:08:28.747Z,1010.32
2017-08-01T02:09:28.768Z,1010.27
2017-08-01T02:10:28.798Z,1010.23
2017-08-01T02:11:28.824Z,1010.23
2017-08-01T02:12:28.850Z,1010.24
2017-08-01T02:13:28.876Z,1010.21
2017-08-01T02:14:28.902Z,1010.18
2017-08-01T02:15:28.929Z,1010.18
2017-08-01T02:16:28.952Z,1010.14
2017-08-01T02:18:29.003Z,1010.17
2017-08-01T02:19:29.033Z,1010.19
2017-08-01T02:20:29.057Z,1010.25
2017-08-01T02:21:29.083Z,1010.26
2017-08-01T02:22:29.107Z,1010.25
2017-08-01T02:23:29.134Z,1010.3
2017-08-01T02:24:29.160Z,1010.31
2017-08-01T02:25:29.189Z,1010.29
2017-08-01T02:26:29.211Z,1010.33
2017-08-01T02:27:29.239Z,1010.32
2017-08-01T02:28:29.264Z,1010.27
2017-08-01T02:29:29.289Z,1010.26
2017-08-01T02:30:29.314Z,1010.22
2017-08-01T02:31:29.338Z,1010.19
2017-08-01T02:32:29.365Z,1010.11
2017-08-01T02:34:29.418Z,1010.08
2017-08-01T02:35:29.444Z,1010.12
2017-08-01T02:36:29.470Z,1010.16
2017-08-01T02:37:29.495Z,1010.15
2017-08-01T02:38:29.517Z,1010.11
2017-08-01T02:39:29.547Z,1010.15
2017-08-01T02:40:29.572Z,1010.19
2017-08-01T02:41:29.599Z,1010.32
2017-08-01T02:42:29.625Z,1010.4
2017-08-01T02:43:29.651Z,1010.42
2017-08-01T02:44:29.671Z,1010.51
2017-08-01T02:45:29.700Z,1010.56
2017-08-01T02:46:29.729Z,1010.6
2017-08-01T02:47:29.754Z,1010.61
2017-08-01T02:48:29.773Z,1010.62
2017-08-01T02:50:29.831Z,1010.68
2017-08-01T02:51:29.858Z,1010.71
2017-08-01T02:52:29.882Z,1010.74
2017-08-01T02:53:29.908Z,1010.72
2017-08-01T02:54:29.959Z,1010.71
2017-08-01T02:55:30.011Z,1010.68
2017-08-01T02:56:29.985Z,1010.69
2017-08-01T02:57:30.013Z,1010.66
2017-08-01T02:58:30.040Z,1010.71
2017-08-01T02:59:30.060Z,1010.75
2017-08-01T03:00:30.088Z,1010.77
2017-08-01T03:01:30.116Z,1010.84
2017-08-01T03:02:30.142Z,1010.88
2017-08-01T03:03:30.172Z,1010.97
2017-08-01T03:05:30.223Z,1011.11
2017-08-01T03:06:30.247Z,1011.25
2017-08-01T03:07:30.270Z,1011.37
2017-08-01T03:08:30.293Z,1011.44
2017-08-01T03:09:30.323Z,1011.56
2017-08-01T03:10:30.345Z,1011.58
2017-08-01T03:11:30.375Z,1011.66
2017-08-01T03:12:30.402Z,1011.71
2017-08-01T03:13:30.424Z,1011.75
2017-08-01T03:14:30.454Z,1011.86
2017-08-01T03:15:30.480Z,1011.87
2017-08-01T03:16:30.505Z,1011.87
2017-08-01T03:17:30.530Z,1011.82
2017-08-01T03:18:30.554Z,1011.76
2017-08-01T03:19:30.585Z,1011.72
2017-08-01T03:20:30.605Z,1011.69
2017-08-01T03:21:30.634Z,1011.65
2017-08-01T03:22:30.657Z,1011.56
2017-08-01T03:23:30.688Z,1011.44
2017-08-01T03:24:30.711Z,1011.27
2017-08-01T03:25:30.739Z,1011.14
2017-08-01T03:26:30.762Z,1011.01
2017-08-01T03:27:30.789Z,1011
2017-08-01T03:28:30.816Z,1011.07
2017-08-01T03:29:30.842Z,1011.06
2017-08-01T03:30:30.869Z,1011.04
2017-08-01T03:31:30.891Z,1011.03
2017-08-01T03:32:30.921Z,1011.01
2017-08-01T03:33:30.943Z,1011.09
2017-08-01T03:34:30.977Z,1011.08
2017-08-01T03:35:30.995Z,1011.16
2017-08-01T03:37:31.044Z,1011.18
2017-08-01T03:38:31.072Z,1011.1
2017-08-01T03:39:31.102Z,1011.1
2017-08-01T03:40:31.124Z,1011.08
2017-08-01T03:41:31.151Z,1011.03
2017-08-01T03:42:31.177Z,1011.03
2017-08-01T03:43:31.202Z,1011.07
2017-08-01T03:44:31.278Z,1011.07
2017-08-01T03:45:31.257Z,1011.08
2017-08-01T03:46:31.279Z,1011.11
2017-08-01T03:47:31.303Z,1011.06
2017-08-01T03:48:31.332Z,1011.03
2017-08-01T03:49:31.355Z,1010.95
2017-08-01T03:50:31.382Z,1010.89
2017-08-01T03:51:31.407Z,1010.87
2017-08-01T03:53:31.486Z,1010.75
2017-08-01T03:54:31.486Z,1010.66
2017-08-01T03:55:31.511Z,1010.64
2017-08-01T03:56:31.537Z,1010.63
2017-08-01T03:57:31.559Z,1010.54
2017-08-01T03:58:31.590Z,1010.5
2017-08-01T03:59:31.616Z,1010.49
2017-08-01T04:00:31.641Z,1010.47
2017-08-01T04:01:31.666Z,1010.48
2017-08-01T04:02:31.695Z,1010.48
2017-08-01T04:03:31.720Z,1010.4
2017-08-01T04:04:31.747Z,1010.39
2017-08-01T04:05:31.771Z,1010.35
2017-08-01T04:06:31.794Z,1010.31
2017-08-01T04:07:31.818Z,1010.25
2017-08-01T04:09:31.873Z,1010.27
2017-08-01T04:10:31.898Z,1010.25
2017-08-01T04:11:31.925Z,1010.28
2017-08-01T04:12:31.947Z,1010.32
2017-08-01T04:13:31.980Z,1010.37
2017-08-01T04:14:32.003Z,1010.4
2017-08-01T04:15:32.029Z,1010.52
2017-08-01T04:16:32.054Z,1010.62
2017-08-01T04:17:32.077Z,1010.72
2017-08-01T04:18:32.105Z,1010.83
2017-08-01T04:19:32.131Z,1010.95
2017-08-01T04:20:32.154Z,1011.04
2017-08-01T04:21:32.182Z,1011.15
2017-08-01T04:22:32.209Z,1011.25
2017-08-01T04:23:32.251Z,1011.31
2017-08-01T04:25:32.286Z,1011.4
2017-08-01T04:26:32.316Z,1011.33
2017-08-01T04:27:32.339Z,1011.31
2017-08-01T04:28:32.364Z,1011.32
2017-08-01T04:29:32.394Z,1011.26
2017-08-01T04:30:32.415Z,1011.23
2017-08-01T04:31:32.441Z,1011.18
2017-08-01T04:32:32.468Z,1011.12
2017-08-01T04:33:32.494Z,1011.17
2017-08-01T04:34:32.519Z,1011.29
2017-08-01T04:35:32.546Z,1011.41
2017-08-01T04:36:32.572Z,1011.55
2017-08-01T04:37:32.599Z,1011.69
2017-08-01T04:38:32.621Z,1011.79
2017-08-01T04:40:32.675Z,1011.99
2017-08-01T04:41:32.698Z,1012.05
2017-08-01T04:42:32.727Z,1012.1
2017-08-01T04:43:32.752Z,1012.12
2017-08-01T04:44:32.777Z,1012.19
2017-08-01T04:45:32.801Z,1012.23
2017-08-01T04:46:32.832Z,1012.1
2017-08-01T04:47:32.855Z,1012.18
2017-08-01T04:48:32.879Z,1012.22
2017-08-01T04:49:32.905Z,1012.4
2017-08-01T04:50:32.940Z,1012.54
2017-08-01T04:51:32.957Z,1012.72
2017-08-01T04:52:32.990Z,1012.79
2017-08-01T04:53:33.010Z,1012.9
2017-08-01T04:54:33.036Z,1012.93
2017-08-01T04:55:33.062Z,1013.05
2017-08-01T04:56:33.086Z,1013.23
2017-08-01T04:57:33.114Z,1013.33
2017-08-01T04:58:33.139Z,1013.36
2017-08-01T04:59:33.168Z,1013.32
2017-08-01T05:00:33.188Z,1013.35
2017-08-01T05:01:33.217Z,1013.41
2017-08-01T05:02:33.246Z,1013.42
2017-08-01T05:03:33.266Z,1013.51
2017-08-01T05:04:33.290Z,1013.5
2017-08-01T05:05:33.320Z,1013.38
2017-08-01T05:06:33.345Z,1013.35
2017-08-01T05:07:33.370Z,1013.25
2017-08-01T05:08:33.397Z,1013.21
2017-08-01T05:09:33.422Z,1013.11
2017-08-01T05:10:33.448Z,1013.05
2017-08-01T05:12:33.500Z,1013.07
2017-08-01T05:13:33.534Z,1013.05
2017-08-01T05:14:33.555Z,1013.12
2017-08-01T05:15:33.574Z,1013.27
2017-08-01T05:16:33.602Z,1013.35
2017-08-01T05:17:33.626Z,1013.3
2017-08-01T05:18:33.654Z,1013.29
2017-08-01T05:19:33.680Z,1013.25
2017-08-01T05:20:33.706Z,1013.34
2017-08-01T05:21:33.730Z,1013.42
2017-08-01T05:22:33.755Z,1013.38
2017-08-01T05:23:33.781Z,1013.27
2017-08-01T05:24:33.809Z,1013.29
2017-08-01T05:25:33.832Z,1013.39
2017-08-01T05:26:33.856Z,1013.49
2017-08-01T05:28:33.914Z,1013.54
2017-08-01T05:29:33.935Z,1013.53
2017-08-01T05:30:33.964Z,1013.61
2017-08-01T05:31:33.989Z,1013.68
2017-08-01T05:32:34.015Z,1013.76
2017-08-01T05:33:34.039Z,1013.8
2017-08-01T05:34:34.064Z,1013.83
2017-08-01T05:35:34.093Z,1013.94
2017-08-01T05:36:34.119Z,1013.97
2017-08-01T05:37:34.145Z,1013.89
2017-08-01T05:38:34.168Z,1013.96
2017-08-01T05:39:34.194Z,1014.03
2017-08-01T05:40:34.220Z,1014.06
2017-08-01T05:41:34.244Z,1014.2
2017-08-01T05:42:34.270Z,1014.32
2017-08-01T05:44:34.322Z,1014.52
2017-08-01T05:45:34.349Z,1014.58
2017-08-01T05:46:34.375Z,1014.53
2017-08-01T05:47:34.400Z,1014.52
2017-08-01T05:48:34.424Z,1014.63
2017-08-01T05:49:34.453Z,1014.64
2017-08-01T05:50:34.478Z,1014.62
2017-08-01T05:51:34.508Z,1014.68
2017-08-01T05:52:34.523Z,1014.66
2017-08-01T05:53:34.553Z,1014.69
2017-08-01T05:54:34.580Z,1014.74
2017-08-01T05:55:34.605Z,1014.69
2017-08-01T05:56:34.634Z,1014.75
2017-08-01T05:57:34.656Z,1014.78
2017-08-01T05:58:34.683Z,1014.77
2017-08-01T06:00:34.731Z,1014.76
2017-08-01T06:01:34.758Z,1014.65
2017-08-01T06:02:34.783Z,1014.62
2017-08-01T06:03:34.806Z,1014.55
2017-08-01T06:04:34.835Z,1014.43
2017-08-01T06:05:34.858Z,1014.42
2017-08-01T06:06:34.886Z,1014.33
2017-08-01T06:07:34.912Z,1014.25
2017-08-01T06:08:34.940Z,1014.12
2017-08-01T06:09:34.965Z,1014.01
2017-08-01T06:10:34.988Z,1013.94
2017-08-01T06:11:35.014Z,1013.89
2017-08-01T06:12:35.042Z,1013.82
2017-08-01T06:13:35.068Z,1013.64
2017-08-01T06:15:35.119Z,1013.14
2017-08-01T06:16:35.143Z,1012.8
2017-08-01T06:17:35.220Z,1012.59
2017-08-01T06:18:35.192Z,1012.36
2017-08-01T06:19:35.222Z,1012.05
2017-08-01T06:20:35.249Z,1011.47
2017-08-01T06:21:35.273Z,1011.05
2017-08-01T06:22:35.293Z,1010.94
2017-08-01T06:23:35.322Z,1011
2017-08-01T06:24:35.341Z,1010.97
2017-08-01T06:25:35.373Z,1011
2017-08-01T06:26:35.395Z,1010.92
2017-08-01T06:27:35.423Z,1010.91
2017-08-01T06:28:35.448Z,1010.89
2017-08-01T06:29:35.478Z,1011.01
2017-08-01T06:30:35.496Z,1011.28
2017-08-01T06:31:35.527Z,1011.54
2017-08-01T06:32:35.548Z,1011.8
2017-08-01T06:33:35.573Z,1011.87
2017-08-01T06:34:35.598Z,1011.83
2017-08-01T06:35:35.624Z,1011.72
2017-08-01T06:36:35.650Z,1011.61
2017-08-01T06:37:35.674Z,1011.55
2017-08-01T06:38:35.697Z,1011.51
2017-08-01T06:39:35.725Z,1011.42
2017-08-01T06:40:35.750Z,1011.36
2017-08-01T06:41:35.776Z,1011.39
2017-08-01T06:42:35.795Z,1011.4
2017-08-01T06:43:35.827Z,1011.35
2017-08-01T06:44:35.848Z,1011.34
2017-08-01T06:45:35.881Z,1011.34
2017-08-01T06:47:35.926Z,1011.33
2017-08-01T06:48:35.951Z,1011.43
2017-08-01T06:49:35.979Z,1011.47
2017-08-01T06:50:36.001Z,1011.55
2017-08-01T06:51:36.025Z,1011.63
2017-08-01T06:52:36.048Z,1011.67
2017-08-01T06:53:36.075Z,1011.69
2017-08-01T06:54:36.100Z,1011.64
2017-08-01T06:55:36.146Z,1011.72
2017-08-01T06:56:36.151Z,1011.7
2017-08-01T06:57:36.179Z,1011.71
2017-08-01T06:58:36.203Z,1011.66
2017-08-01T06:59:36.229Z,1011.55
2017-08-01T07:00:36.254Z,1011.59
2017-08-01T07:01:36.281Z,1011.58
2017-08-01T07:03:36.330Z,1011.65
2017-08-01T07:04:36.355Z,1011.67
2017-08-01T07:05:36.382Z,1011.82
2017-08-01T07:06:36.410Z,1011.96
2017-08-01T07:07:36.433Z,1011.85
2017-08-01T07:08:36.461Z,1011.56
2017-08-01T07:09:36.491Z,1011.63
2017-08-01T07:10:36.514Z,1011.75
2017-08-01T07:11:36.540Z,1011.58
2017-08-01T07:12:36.572Z,1011.92
2017-08-01T07:13:36.595Z,1012.33
2017-08-01T07:14:36.620Z,1011.75
2017-08-01T07:15:36.649Z,1012.08
2017-08-01T07:16:36.676Z,1012.21
2017-08-01T07:17:36.722Z,1012.04
2017-08-01T07:19:36.765Z,1012.29
2017-08-01T07:20:36.795Z,1012.24
2017-08-01T07:21:36.820Z,1012.21
2017-08-01T07:22:36.853Z,1012.3
2017-08-01T07:23:36.878Z,1012.23
2017-08-01T07:24:36.909Z,1011.94
2017-08-01T07:25:36.937Z,1011.85
2017-08-01T07:26:36.971Z,1011.9
2017-08-01T07:27:36.999Z,1011.52
2017-08-01T07:28:37.035Z,1011.58
2017-08-01T07:29:37.064Z,1011.91
2017-08-01T07:30:37.097Z,1011.76
2017-08-01T07:31:37.126Z,1011.52
2017-08-01T07:32:37.156Z,1011.77
2017-08-01T07:33:37.189Z,1011.93
2017-08-01T07:35:37.252Z,1011.87
2017-08-01T07:36:37.283Z,1011.7
2017-08-01T07:37:37.316Z,1011.78
2017-08-01T07:38:37.347Z,1011.75
2017-08-01T07:39:37.377Z,1011.79
2017-08-01T07:40:37.412Z,1011.74
2017-08-01T07:41:37.445Z,1011.64
2017-08-01T07:42:37.479Z,1011.59
2017-08-01T07:43:37.510Z,1011.55
2017-08-01T07:44:37.544Z,1011.64
2017-08-01T07:45:37.579Z,1011.59
2017-08-01T07:46:37.612Z,1011.7
2017-08-01T07:47:37.645Z,1011.69
2017-08-01T07:48:37.675Z,1011.76
2017-08-01T07:50:37.746Z,1011.23
2017-08-01T07:51:37.777Z,1011.65
2017-08-01T07:52:37.815Z,1011.02
2017-08-01T07:53:37.847Z,1010.91
2017-08-01T07:54:37.886Z,1010.86
2017-08-01T07:55:37.917Z,1010.82
2017-08-01T07:56:37.958Z,1010.8
2017-08-01T07:57:37.986Z,1010.8
2017-08-01T07:58:38.020Z,1011.02
2017-08-01T07:59:38.052Z,1010.88
2017-08-01T08:00:38.080Z,1010.82
2017-08-01T08:01:38.120Z,1010.5
2017-08-01T08:02:38.147Z,1010.38
2017-08-01T08:03:38.184Z,1010.35
2017-08-01T08:04:38.216Z,1010.21
2017-08-01T08:05:38.250Z,1010.19
2017-08-01T08:06:38.285Z,1010.2
2017-08-01T08:07:38.315Z,1010.31
2017-08-01T08:08:38.345Z,1010.41
2017-08-01T08:09:38.383Z,1010.49
2017-08-01T08:10:38.416Z,1010.5
2017-08-01T08:11:38.447Z,1010.47
2017-08-01T08:12:38.480Z,1010.48
2017-08-01T08:13:38.520Z,1010.51
2017-08-01T08:14:38.543Z,1010.44
2017-08-01T08:15:38.574Z,1010.41
2017-08-01T08:16:38.609Z,1010.49
2017-08-01T08:17:38.634Z,1010.55
2017-08-01T08:18:38.672Z,1010.55
2017-08-01T08:19:38.701Z,1010.51
2017-08-01T08:20:38.731Z,1010.45
2017-08-01T08:22:38.789Z,1010.5
2017-08-01T08:23:38.828Z,1010.74
2017-08-01T08:24:38.856Z,1010.8
2017-08-01T08:25:38.889Z,1010.52
2017-08-01T08:26:38.919Z,1010.71
2017-08-01T08:27:38.949Z,1010.69
2017-08-01T08:28:38.981Z,1010.71
2017-08-01T08:29:39.010Z,1010.81
2017-08-01T08:30:39.046Z,1010.89
2017-08-01T08:31:39.077Z,1010.97
2017-08-01T08:32:39.109Z,1011.07
2017-08-01T08:33:39.138Z,1011.15
2017-08-01T08:34:39.171Z,1010.95
2017-08-01T08:35:39.202Z,1010.94
2017-08-01T08:36:39.241Z,1011.12
2017-08-01T08:38:39.306Z,1011.22
2017-08-01T08:39:39.334Z,1011.21
2017-08-01T08:40:39.375Z,1011.24
2017-08-01T08:41:39.407Z,1011.23
2017-08-01T08:42:39.440Z,1011.21
2017-08-01T08:43:39.471Z,1011.17
2017-08-01T08:44:39.504Z,1011.14
2017-08-01T08:45:39.537Z,1011.13
2017-08-01T08:46:39.575Z,1010.96
2017-08-01T08:47:39.609Z,1011.03
2017-08-01T08:48:39.643Z,1010.92
2017-08-01T08:49:39.680Z,1010.82
2017-08-01T08:50:39.709Z,1010.96
2017-08-01T08:51:39.746Z,1010.97
2017-08-01T08:52:39.778Z,1010.85
2017-08-01T08:54:39.848Z,1010.85
2017-08-01T08:55:39.882Z,1010.93
2017-08-01T08:56:39.917Z,1010.86
2017-08-01T08:57:39.950Z,1010.99
2017-08-01T08:58:39.982Z,1010.92
2017-08-01T08:59:40.013Z,1010.95
2017-08-01T09:00:40.056Z,1010.98
2017-08-01T09:01:40.085Z,1011.01
2017-08-01T09:02:40.122Z,1011.09
2017-08-01T09:03:40.155Z,1011.06
2017-08-01T09:04:40.187Z,1011.04
2017-08-01T09:05:40.223Z,1011.09
2017-08-01T09:06:40.257Z,1011.07
2017-08-01T09:07:40.290Z,1011.05
2017-08-01T09:08:40.321Z,1011.13
2017-08-01T09:10:40.393Z,1011.26
2017-08-01T09:11:40.425Z,1011.29
2017-08-01T09:12:40.457Z,1011.33
2017-08-01T09:13:40.493Z,1011.38
2017-08-01T09:14:40.532Z,1011.4
2017-08-01T09:15:40.562Z,1011.39
2017-08-01T09:16:40.598Z,1011.28
2017-08-01T09:17:40.643Z,1011.29
2017-08-01T09:18:40.667Z,1011.32
2017-08-01T09:19:40.710Z,1011.27
2017-08-01T09:20:40.736Z,1011.27
2017-08-01T09:21:40.773Z,1011.28
2017-08-01T09:22:40.806Z,1011.22
2017-08-01T09:23:40.842Z,1011.19
2017-08-01T09:25:40.911Z,1011.08
2017-08-01T09:26:40.943Z,1011.09
2017-08-01T09:27:40.980Z,1011.05
2017-08-01T09:28:41.016Z,1011.06
2017-08-01T09:29:41.048Z,1011.01
2017-08-01T09:30:41.083Z,1011.04
2017-08-01T09:31:41.119Z,1011.02
2017-08-01T09:32:41.155Z,1011
2017-08-01T09:33:41.186Z,1011.03
2017-08-01T09:34:41.224Z,1011.06
2017-08-01T09:35:41.257Z,1011.03
2017-08-01T09:36:41.291Z,1011.05
2017-08-01T09:37:41.324Z,1011.1
2017-08-01T09:38:41.362Z,1011.21
2017-08-01T09:39:41.392Z,1011.23
2017-08-01T09:40:41.432Z,1011.29
2017-08-01T09:41:41.461Z,1011.2
2017-08-01T09:42:41.502Z,1011.19
2017-08-01T09:43:41.534Z,1011.17
2017-08-01T09:44:41.568Z,1011.18
2017-08-01T09:45:41.606Z,1011.14
2017-08-01T09:46:41.639Z,1011.14
2017-08-01T09:47:41.680Z,1011.17
2017-08-01T09:48:41.706Z,1011.2
2017-08-01T09:49:41.746Z,1011.18
2017-08-01T09:50:41.777Z,1011.21
2017-08-01T09:51:41.817Z,1011.22
2017-08-01T09:52:41.846Z,1011.26
2017-08-01T09:53:41.882Z,1011.29
2017-08-01T09:54:41.914Z,1011.3
2017-08-01T09:55:41.948Z,1011.27
2017-08-01T09:57:42.020Z,1011.38
2017-08-01T09:58:42.056Z,1011.37
2017-08-01T09:59:42.087Z,1011.39
2017-08-01T10:00:42.122Z,1011.37
2017-08-01T10:01:42.159Z,1011.34
2017-08-01T10:02:42.193Z,1011.34
2017-08-01T10:03:42.248Z,1011.33
2017-08-01T10:04:42.262Z,1011.39
2017-08-01T10:05:42.297Z,1011.37
2017-08-01T10:06:42.332Z,1011.36
2017-08-01T10:07:42.366Z,1011.34
2017-08-01T10:08:42.401Z,1011.34
2017-08-01T10:09:42.435Z,1011.4
2017-08-01T10:10:42.469Z,1011.44
2017-08-01T10:11:42.506Z,1011.44
2017-08-01T10:13:42.570Z,1011.42
2017-08-01T10:14:42.610Z,1011.4
2017-08-01T10:15:42.642Z,1011.42
2017-08-01T10:16:42.680Z,1011.37
2017-08-01T10:17:42.706Z,1011.36
2017-08-01T10:18:42.745Z,1011.35
2017-08-01T10:19:42.775Z,1011.29
2017-08-01T10:20:42.813Z,1011.28
2017-08-01T10:21:42.849Z,1011.26
2017-08-01T10:22:42.881Z,1011.27
2017-08-01T10:23:42.916Z,1011.24
2017-08-01T10:24:42.951Z,1011.22
2017-08-01T10:25:42.986Z,1011.21
2017-08-01T10:26:43.018Z,1011.21
2017-08-01T10:27:43.050Z,1011.3
2017-08-01T10:29:43.121Z,1011.32
2017-08-01T10:30:43.152Z,1011.26
2017-08-01T10:31:43.189Z,1011.21
2017-08-01T10:32:43.225Z,1011.17
2017-08-01T10:33:43.259Z,1011.21
2017-08-01T10:34:43.289Z,1011.16
2017-08-01T10:35:43.325Z,1011.19
2017-08-01T10:36:43.360Z,1011.11
2017-08-01T10:37:43.393Z,1011.09
2017-08-01T10:38:43.427Z,1011.04
2017-08-01T10:39:43.460Z,1011.04
2017-08-01T10:40:43.496Z,1011.03
2017-08-01T10:41:43.526Z,1011.05
2017-08-01T10:42:43.565Z,1011.04
2017-08-01T10:43:43.594Z,1011.05
2017-08-01T10:45:43.663Z,1011.07
2017-08-01T10:46:43.698Z,1011
2017-08-01T10:47:43.733Z,1011.03
2017-08-01T10:48:43.764Z,1011
2017-08-01T10:49:43.798Z,1011.04
2017-08-01T10:50:43.831Z,1011.05
2017-08-01T10:51:43.867Z,1011.03
2017-08-01T10:52:43.898Z,1011.08
2017-08-01T10:53:43.933Z,1011.12
2017-08-01T10:54:43.965Z,1011.09
2017-08-01T10:55:43.999Z,1011.08
2017-08-01T10:56:44.034Z,1011.06
2017-08-01T10:57:44.065Z,1011.09
2017-08-01T10:58:44.099Z,1011.06
2017-08-01T11:00:44.166Z,1011.1
2017-08-01T11:01:44.195Z,1011.12
2017-08-01T11:02:44.232Z,1011.06
2017-08-01T11:03:44.262Z,1011.07
2017-08-01T11:04:44.299Z,1011.11
2017-08-01T11:05:44.329Z,1011.09
2017-08-01T11:06:44.364Z,1011.05
2017-08-01T11:07:44.396Z,1011.04
2017-08-01T11:08:44.427Z,1011.05
2017-08-01T11:09:44.459Z,1011.07
2017-08-01T11:10:44.497Z,1011.1
2017-08-01T11:11:44.524Z,1011.05
2017-08-01T11:12:44.557Z,1011.13
2017-08-01T11:13:44.591Z,1011.09
2017-08-01T11:14:44.622Z,1011.1
2017-08-01T11:15:44.657Z,1011.05
2017-08-01T11:16:44.690Z,1011.02
2017-08-01T11:17:44.718Z,1011
2017-08-01T11:18:44.752Z,1011
2017-08-01T11:19:44.783Z,1011.07
2017-08-01T11:20:44.814Z,1011.09
2017-08-01T11:21:44.845Z,1011.06
2017-08-01T11:22:44.884Z,1010.98
2017-08-01T11:23:44.912Z,1010.97
2017-08-01T11:24:44.947Z,1010.98
2017-08-01T11:25:44.980Z,1010.95
2017-08-01T11:26:45.013Z,1010.94
2017-08-01T11:27:45.044Z,1010.99
2017-08-01T11:28:45.077Z,1011.05
2017-08-01T11:29:45.106Z,1011.04
2017-08-01T11:30:45.137Z,1011.1
2017-08-01T11:32:45.206Z,1011.1
2017-08-01T11:33:45.236Z,1011.11
2017-08-01T11:34:45.270Z,1011.14
2017-08-01T11:35:45.300Z,1011.13
2017-08-01T11:36:45.332Z,1011.09
2017-08-01T11:37:45.360Z,1011.07
2017-08-01T11:38:45.398Z,1011.06
2017-08-01T11:39:45.430Z,1011.03
2017-08-01T11:40:45.460Z,1011.03
2017-08-01T11:41:45.490Z,1011.01
2017-08-01T11:42:45.522Z,1010.96
2017-08-01T11:43:45.552Z,1010.94
2017-08-01T11:44:45.587Z,1010.92
2017-08-01T11:45:45.619Z,1010.89
2017-08-01T11:46:45.652Z,1010.86
2017-08-01T11:48:45.719Z,1010.73
2017-08-01T11:49:45.747Z,1010.67
2017-08-01T11:50:45.780Z,1010.7
2017-08-01T11:51:45.814Z,1010.71
2017-08-01T11:52:45.840Z,1010.75
2017-08-01T11:53:45.873Z,1010.79
2017-08-01T11:54:45.906Z,1010.86
2017-08-01T11:55:45.938Z,1010.88
2017-08-01T11:56:45.969Z,1010.89
2017-08-01T11:57:46.000Z,1010.9
2017-08-01T11:58:46.033Z,1010.92
2017-08-01T11:59:46.112Z,1010.96
2017-08-01T12:00:46.095Z,1010.94
2017-08-01T12:01:46.130Z,1010.9
2017-08-01T12:02:46.160Z,1010.8
2017-08-01T12:04:46.224Z,1010.72
2017-08-01T12:05:46.258Z,1010.77
2017-08-01T12:06:46.281Z,1010.79
2017-08-01T12:07:46.314Z,1010.81
2017-08-01T12:08:46.349Z,1010.83
2017-08-01T12:09:46.384Z,1010.87
2017-08-01T12:10:46.414Z,1010.89
2017-08-01T12:11:46.442Z,1010.92
2017-08-01T12:12:46.476Z,1010.95
2017-08-01T12:13:46.505Z,1010.95
2017-08-01T12:14:46.538Z,1010.94
2017-08-01T12:15:46.570Z,1010.94
2017-08-01T12:16:46.608Z,1010.96
2017-08-01T12:17:46.637Z,1010.93
2017-08-01T12:18:46.667Z,1010.92
2017-08-01T12:20:46.730Z,1010.95
2017-08-01T12:21:46.760Z,1010.96
2017-08-01T12:22:46.793Z,1010.92
2017-08-01T12:23:46.821Z,1010.91
2017-08-01T12:24:46.853Z,1010.86
2017-08-01T12:25:46.884Z,1010.8
2017-08-01T12:26:46.923Z,1010.72
2017-08-01T12:27:46.952Z,1010.69
2017-08-01T12:28:46.982Z,1010.63
2017-08-01T12:29:47.015Z,1010.59
2017-08-01T12:30:47.046Z,1010.61
2017-08-01T12:31:47.078Z,1010.57
2017-08-01T12:32:47.112Z,1010.51
2017-08-01T12:33:47.146Z,1010.52
2017-08-01T12:35:47.206Z,1010.46
2017-08-01T12:36:47.235Z,1010.43
2017-08-01T12:37:47.264Z,1010.44
2017-08-01T12:38:47.301Z,1010.47
2017-08-01T12:39:47.334Z,1010.51
2017-08-01T12:40:47.363Z,1010.49
2017-08-01T12:41:47.393Z,1010.51
2017-08-01T12:42:47.428Z,1010.48
2017-08-01T12:43:47.455Z,1010.5
2017-08-01T12:44:47.487Z,1010.48
2017-08-01T12:45:47.516Z,1010.48
2017-08-01T12:46:47.555Z,1010.47
2017-08-01T12:47:47.581Z,1010.48
2017-08-01T12:48:47.612Z,1010.44